首页
METAR-TAF:

METAR-TAF

机场 :

Ormond Beach Municipal Airport

Ormond Beach, 佛罗里达州, 美国

纬度: 29-18-04N, 经度: 081-06-49W, 海拔: 9米

当前天气观测

该预报发布于26分钟前的15:50 UTC
风速4节,风向东转东北
温度 18°C
湿度 83%
气压 1022 hPa
能見度: 16.1公里
天空无云

METAR: KOMN 151550Z 06004KT 10SM CLR 18/15 A3019

时间: 11:16 (16:16 UTC)


TAF: 丢失

超过4000个机场的气象观测和天气预报(METAR&TAF报告)。

可查询的气象台以黄色和红色小点在地图上表示。

将鼠标移到小点上方,可查看气象台名称。

然后点击查看天气观测和预报。

如需切换地图:点击带黑十字的绿色按钮放大地图;点击带横线的绿色按钮缩小地图;或者点击绿色箭头查看邻近地区的地图。


METAR-TAF: